Time;durP1;ratioP1;P1;durP2;ratioP2;P2;SDS_P1;SDS_P2;PMS_P1;PMS_P2;Temp;Humidity;BMP_temperature;BMP_pressure;BME280_temperature;BME280_humidity;BME280_pressure;Samples;Min_cycle;Max_cycle;Signal;HPM_P1;HPM_P2
2022/02/26 00:00:22;;;;;;;1999.90;999.90;;;3.30;99.90;;;;;;5013538;28;20204;-76
2022/02/26 00:02:48;;;;;;;1999.90;999.90;;;3.30;99.90;;;;;;5013487;28;20181;-76
2022/02/26 00:05:14;;;;;;;1999.90;999.90;;;3.30;99.90;;;;;;5013299;28;20545;-76
2022/02/26 00:07:39;;;;;;;1999.90;999.90;;;3.20;99.90;;;;;;5013361;28;20215;-76
2022/02/26 00:10:05;;;;;;;1999.90;999.90;;;3.20;99.90;;;;;;5013582;28;20184;-76
2022/02/26 00:12:31;;;;;;;1999.90;999.90;;;3.20;99.90;;;;;;5013383;28;20169;-76
2022/02/26 00:14:57;;;;;;;1999.90;999.90;;;3.10;99.90;;;;;;5013074;28;20260;-76
2022/02/26 00:17:22;;;;;;;1999.90;999.90;;;3.10;99.90;;;;;;5013139;28;20540;-76
2022/02/26 00:19:48;;;;;;;1999.90;999.90;;;3.00;99.90;;;;;;5013280;28;20519;-76
2022/02/26 00:22:13;;;;;;;1999.90;999.90;;;3.10;99.90;;;;;;5013304;28;20227;-76
2022/02/26 00:24:39;;;;;;;1999.90;999.90;;;3.10;99.90;;;;;;5012867;28;20204;-75
2022/02/26 00:27:04;;;;;;;1999.90;999.90;;;3.20;99.90;;;;;;5012960;28;20773;-75
2022/02/26 00:29:34;;;;;;;1999.90;999.90;;;3.10;99.90;;;;;;5013028;28;20169;-75
2022/02/26 00:32:01;;;;;;;1999.90;999.90;;;3.00;99.90;;;;;;5013006;28;20169;-75
2022/02/26 00:34:26;;;;;;;1999.90;999.90;;;2.90;99.90;;;;;;5012705;28;20227;-75
2022/02/26 00:36:52;;;;;;;1999.90;999.90;;;2.80;99.90;;;;;;5012932;28;20192;-75
2022/02/26 00:39:18;;;;;;;1999.90;999.90;;;2.70;99.90;;;;;;5012917;28;20168;-75
2022/02/26 00:41:43;;;;;;;1999.90;999.90;;;2.70;99.90;;;;;;5012861;28;20466;-75
2022/02/26 00:44:09;;;;;;;1999.90;999.90;;;2.80;99.90;;;;;;5011759;28;20180;-75
2022/02/26 00:46:35;;;;;;;1999.90;999.90;;;2.80;99.90;;;;;;5012463;28;20332;-75
2022/02/26 00:51:45;;;;;;;1999.90;999.90;;;2.90;99.90;;;;;;5012776;28;20676;-75
2022/02/26 00:54:11;;;;;;;1999.90;999.90;;;3.00;99.90;;;;;;5012402;28;20170;-75
2022/02/26 00:56:36;;;;;;;1999.90;999.90;;;3.00;99.90;;;;;;5012564;28;20701;-75
2022/02/26 00:59:02;;;;;;;1999.90;999.90;;;3.00;99.90;;;;;;5012592;28;20177;-75
2022/02/26 01:01:27;;;;;;;1999.90;999.90;;;2.90;99.90;;;;;;5012518;28;20177;-75
2022/02/26 01:03:53;;;;;;;1999.90;999.90;;;2.90;99.90;;;;;;5012525;28;20169;-75
2022/02/26 01:06:19;;;;;;;1999.90;999.90;;;2.90;99.90;;;;;;5012157;28;20177;-74
2022/02/26 01:08:44;;;;;;;1999.90;999.90;;;2.90;99.90;;;;;;5012405;28;20666;-75
2022/02/26 01:11:10;;;;;;;1999.90;999.90;;;2.90;99.90;;;;;;5012436;28;20653;-75
2022/02/26 01:13:35;;;;;;;1999.90;999.90;;;2.90;99.90;;;;;;5012408;28;20193;-75
2022/02/26 01:16:01;;;;;;;1999.90;999.90;;;2.90;99.90;;;;;;5012140;28;20262;-75
2022/02/26 01:18:27;;;;;;;1999.90;999.90;;;2.90;99.90;;;;;;5012337;28;20272;-75
2022/02/26 01:20:52;;;;;;;1999.90;999.90;;;2.90;99.90;;;;;;5012342;28;20181;-75
2022/02/26 01:23:18;;;;;;;1999.90;999.90;;;2.80;99.90;;;;;;5012446;28;20275;-75
2022/02/26 01:25:43;;;;;;;1999.90;999.90;;;2.70;99.90;;;;;;5011973;28;20177;-75
2022/02/26 01:28:09;;;;;;;1999.90;999.90;;;2.70;99.90;;;;;;5012023;28;20251;-75
2022/02/26 01:30:35;;;;;;;1999.90;999.90;;;2.70;99.90;;;;;;5012185;28;20165;-75
2022/02/26 01:33:00;;;;;;;1999.90;999.90;;;2.80;99.90;;;;;;5012247;28;20161;-75
2022/02/26 01:35:26;;;;;;;1999.90;999.90;;;2.90;99.90;;;;;;5011955;28;20168;-75
2022/02/26 01:37:51;;;;;;;1999.90;999.90;;;2.90;99.90;;;;;;5012134;28;20662;-75
2022/02/26 01:40:17;;;;;;;1999.90;999.90;;;2.80;99.90;;;;;;5012175;28;20291;-75
2022/02/26 01:42:43;;;;;;;1999.90;999.90;;;2.70;99.90;;;;;;5012017;28;20165;-75
2022/02/26 01:45:14;;;;;;;1999.90;999.90;;;2.80;99.90;;;;;;5011824;28;20195;-75
2022/02/26 01:47:41;;;;;;;1999.90;999.90;;;2.70;99.90;;;;;;5011810;28;20224;-75
2022/02/26 01:50:08;;;;;;;1999.90;999.90;;;2.60;99.90;;;;;;5012036;28;20204;-75
2022/02/26 01:52:33;;;;;;;1999.90;999.90;;;2.70;99.90;;;;;;5012048;28;20248;-75
2022/02/26 01:54:59;;;;;;;1999.90;999.90;;;2.70;99.90;;;;;;5012553;28;20720;-75
2022/02/26 01:57:25;;;;;;;1999.90;999.90;;;2.80;99.90;;;;;;5015775;28;20192;-75
2022/02/26 01:59:51;;;;;;;1999.90;999.90;;;2.70;99.90;;;;;;5015815;28;20257;-75
2022/02/26 02:02:16;;;;;;;1999.90;999.90;;;2.80;99.90;;;;;;5015862;28;20729;-75
2022/02/26 02:04:42;;;;;;;1999.90;999.90;;;2.80;99.90;;;;;;5015473;28;20169;-74
2022/02/26 02:07:08;;;;;;;1999.90;999.90;;;2.80;99.90;;;;;;5015609;28;20284;-75
2022/02/26 02:09:34;;;;;;;1999.90;999.90;;;2.80;99.90;;;;;;5015767;28;20435;-75
2022/02/26 02:12:00;;;;;;;1999.90;999.90;;;2.80;99.90;;;;;;5015486;28;20404;-75
2022/02/26 02:14:26;;;;;;;1999.90;999.90;;;2.90;99.90;;;;;;5015279;28;20537;-75
2022/02/26 02:16:51;;;;;;;1999.90;999.90;;;3.00;99.90;;;;;;5015470;28;20423;-75
2022/02/26 02:19:17;;;;;;;1999.90;999.90;;;2.90;99.90;;;;;;5015549;28;20442;-75
2022/02/26 02:21:42;;;;;;;1999.90;999.90;;;2.80;99.90;;;;;;5015432;28;20169;-74
2022/02/26 02:24:08;;;;;;;1999.90;999.90;;;2.80;99.90;;;;;;5015082;28;20583;-75
2022/02/26 02:26:35;;;;;;;1999.90;999.90;;;2.80;99.90;;;;;;5015134;28;20201;-75
2022/02/26 02:29:02;;;;;;;1999.90;999.90;;;2.80;99.90;;;;;;5015260;28;20196;-75
2022/02/26 02:31:29;;;;;;;1999.90;999.90;;;2.80;99.90;;;;;;5015340;28;20181;-75
2022/02/26 02:33:54;;;;;;;1999.90;999.90;;;2.80;99.90;;;;;;5015230;28;20169;-75
2022/02/26 02:36:20;;;;;;;1999.90;999.90;;;2.80;99.90;;;;;;5015032;28;20173;-75
2022/02/26 02:38:46;;;;;;;1999.90;999.90;;;2.80;99.90;;;;;;5015130;28;20635;-75
2022/02/26 02:41:11;;;;;;;1999.90;999.90;;;2.80;99.90;;;;;;5015120;28;20172;-75
2022/02/26 02:43:39;;;;;;;1999.90;999.90;;;2.90;99.90;;;;;;5015017;28;20659;-75
2022/02/26 02:46:04;;;;;;;1999.90;999.90;;;2.80;99.90;;;;;;5014710;28;20180;-75
2022/02/26 02:48:30;;;;;;;1999.90;999.90;;;2.80;99.90;;;;;;5014787;28;20710;-75
2022/02/26 02:50:56;;;;;;;1999.90;999.90;;;2.80;99.90;;;;;;5014941;28;20169;-75
2022/02/26 02:53:23;;;;;;;1999.90;999.90;;;2.80;99.90;;;;;;5014918;28;20762;-75
2022/02/26 02:55:50;;;;;;;1999.90;999.90;;;2.80;99.90;;;;;;5014604;28;20781;-75
2022/02/26 02:58:23;;;;;;;1999.90;999.90;;;2.90;99.90;;;;;;5014678;28;20244;-75
2022/02/26 03:00:49;;;;;;;1999.90;999.90;;;2.90;99.90;;;;;;5015036;28;20173;-75
2022/02/26 03:03:15;;;;;;;1999.90;999.90;;;2.90;99.90;;;;;;5014662;28;20169;-75
2022/02/26 03:05:41;;;;;;;1999.90;999.90;;;2.90;99.90;;;;;;5014375;28;20539;-75
2022/02/26 03:08:07;;;;;;;1999.90;999.90;;;2.90;99.90;;;;;;5013614;28;20204;-75
2022/02/26 03:10:33;;;;;;;1999.90;999.90;;;2.90;99.90;;;;;;5014621;28;20474;-75
2022/02/26 03:12:58;;;;;;;1999.90;999.90;;;2.90;99.90;;;;;;5014505;28;20209;-75
2022/02/26 03:15:24;;;;;;;1999.90;999.90;;;2.90;99.90;;;;;;5014321;28;20169;-74
2022/02/26 03:17:53;;;;;;;1999.90;999.90;;;2.90;99.90;;;;;;5014385;28;20569;-75
2022/02/26 03:20:19;;;;;;;1999.90;999.90;;;2.90;99.90;;;;;;5014411;28;20587;-75
2022/02/26 03:22:45;;;;;;;1999.90;999.90;;;2.80;99.90;;;;;;5014308;28;20700;-75
2022/02/26 03:25:11;;;;;;;1999.90;999.90;;;2.90;99.90;;;;;;5014029;28;20174;-75
2022/02/26 03:27:37;;;;;;;1999.90;999.90;;;2.80;99.90;;;;;;5014083;28;20205;-75
2022/02/26 03:30:08;;;;;;;1999.90;999.90;;;2.80;99.90;;;;;;5014233;28;20435;-75
2022/02/26 03:32:34;;;;;;;1999.90;999.90;;;2.90;99.90;;;;;;5014163;28;20173;-75
2022/02/26 03:35:00;;;;;;;1999.90;999.90;;;2.90;99.90;;;;;;5013822;28;20172;-75
2022/02/26 03:37:28;;;;;;;1999.90;999.90;;;2.80;99.90;;;;;;5013990;28;20251;-75
2022/02/26 03:39:54;;;;;;;1999.90;999.90;;;2.70;99.90;;;;;;5014038;28;20570;-75
2022/02/26 03:42:20;;;;;;;1999.90;999.90;;;2.70;99.90;;;;;;5013914;28;20177;-75
2022/02/26 03:44:48;;;;;;;1999.90;999.90;;;2.70;99.90;;;;;;5028899;28;20173;-75
2022/02/26 03:47:18;;;;;;;1999.90;999.90;;;2.70;99.90;;;;;;5013614;28;20471;-75
2022/02/26 03:49:44;;;;;;;1999.90;999.90;;;2.70;99.90;;;;;;5013826;28;20173;-75
2022/02/26 03:52:10;;;;;;;1999.90;999.90;;;2.70;99.90;;;;;;5013756;28;20165;-75
2022/02/26 03:54:35;;;;;;;1999.90;999.90;;;2.60;99.90;;;;;;5013537;28;20195;-75
2022/02/26 03:57:02;;;;;;;1999.90;999.90;;;2.60;99.90;;;;;;5013582;28;20581;-75
2022/02/26 03:59:27;;;;;;;1999.90;999.90;;;2.60;99.90;;;;;;5013607;28;20216;-75
2022/02/26 04:01:53;;;;;;;1999.90;999.90;;;2.60;99.90;;;;;;5013753;28;20205;-75
2022/02/26 04:04:18;;;;;;;1999.90;999.90;;;2.60;99.90;;;;;;5013180;28;20169;-75
2022/02/26 04:06:44;;;;;;;1999.90;999.90;;;2.50;99.90;;;;;;5013405;28;20205;-75
2022/02/26 04:09:11;;;;;;;1999.90;999.90;;;2.40;99.90;;;;;;5013474;28;20176;-75
2022/02/26 04:11:37;;;;;;;1999.90;999.90;;;2.30;99.90;;;;;;5013358;28;20423;-75
2022/02/26 04:14:03;;;;;;;1999.90;999.90;;;2.30;99.90;;;;;;5013058;28;20169;-75
2022/02/26 04:16:29;;;;;;;1999.90;999.90;;;2.30;99.90;;;;;;5013278;28;20219;-75
2022/02/26 04:18:54;;;;;;;1999.90;999.90;;;2.30;99.90;;;;;;5013177;28;20570;-75
2022/02/26 04:21:20;;;;;;;1999.90;999.90;;;2.40;99.90;;;;;;5013224;28;20655;-75
2022/02/26 04:23:46;;;;;;;1999.90;999.90;;;2.40;99.90;;;;;;5013218;28;20165;-75
2022/02/26 04:26:12;;;;;;;1999.90;999.90;;;2.30;99.90;;;;;;5012794;28;20487;-75
2022/02/26 04:28:37;;;;;;;1999.90;999.90;;;2.30;99.90;;;;;;5013034;28;20467;-75
2022/02/26 04:31:03;;;;;;;1999.90;999.90;;;2.30;99.90;;;;;;5013134;28;20657;-75
2022/02/26 04:33:29;;;;;;;1999.90;999.90;;;2.20;99.90;;;;;;5013039;28;20709;-75
2022/02/26 04:35:55;;;;;;;1999.90;999.90;;;2.20;99.90;;;;;;5012706;28;20196;-75
2022/02/26 04:38:20;;;;;;;1999.90;999.90;;;2.10;99.90;;;;;;5012975;28;20188;-75
2022/02/26 04:40:46;;;;;;;1999.90;999.90;;;2.10;99.90;;;;;;5012932;28;20173;-75
2022/02/26 04:43:12;;;;;;;1999.90;999.90;;;2.00;99.90;;;;;;5012869;28;20204;-75
2022/02/26 04:45:37;;;;;;;1999.90;999.90;;;2.00;99.90;;;;;;5012562;28;20176;-75
2022/02/26 04:48:03;;;;;;;1999.90;999.90;;;1.90;99.90;;;;;;5013001;28;20208;-75
2022/02/26 04:50:29;;;;;;;1999.90;999.90;;;1.90;99.90;;;;;;5012732;28;20165;-75
2022/02/26 04:52:55;;;;;;;1999.90;999.90;;;1.90;99.90;;;;;;5012817;28;20560;-75
2022/02/26 04:55:21;;;;;;;1999.90;999.90;;;1.90;99.90;;;;;;5012352;28;20415;-76
2022/02/26 04:57:47;;;;;;;1999.90;999.90;;;1.90;99.90;;;;;;5012637;28;20185;-76
2022/02/26 05:00:14;;;;;;;1999.90;999.90;;;1.90;99.90;;;;;;5012657;28;20558;-76
2022/02/26 05:02:40;;;;;;;1999.90;999.90;;;1.80;99.90;;;;;;5012607;28;20177;-76
2022/02/26 05:05:06;;;;;;;1999.90;999.90;;;1.70;99.90;;;;;;5012211;28;20208;-76
2022/02/26 05:07:32;;;;;;;1999.90;999.90;;;1.70;99.90;;;;;;5012318;28;20204;-76
2022/02/26 05:09:58;;;;;;;1999.90;999.90;;;1.60;99.90;;;;;;5012436;28;20578;-76
2022/02/26 05:12:24;;;;;;;1999.90;999.90;;;1.60;99.90;;;;;;5012480;28;20439;-76
2022/02/26 05:14:50;;;;;;;1999.90;999.90;;;1.50;99.90;;;;;;5012096;28;20177;-76
2022/02/26 05:17:16;;;;;;;1999.90;999.90;;;1.50;99.90;;;;;;5013064;28;20196;-76
2022/02/26 05:19:42;;;;;;;1999.90;999.90;;;1.40;99.90;;;;;;5013110;28;20595;-75
2022/02/26 05:22:08;;;;;;;1999.90;999.90;;;1.30;99.90;;;;;;5013023;28;20180;-76
2022/02/26 05:24:33;;;;;;;1999.90;999.90;;;1.30;99.90;;;;;;5012877;28;20423;-76
2022/02/26 05:26:59;;;;;;;1999.90;999.90;;;1.30;99.90;;;;;;5012935;28;20224;-76
2022/02/26 05:29:24;;;;;;;1999.90;999.90;;;1.20;99.90;;;;;;5012398;28;20169;-75
2022/02/26 05:31:50;;;;;;;1999.90;999.90;;;1.10;99.90;;;;;;5012875;28;20215;-75
2022/02/26 05:34:17;;;;;;;1999.90;999.90;;;1.10;99.90;;;;;;5012620;28;20258;-76
2022/02/26 05:36:43;;;;;;;1999.90;999.90;;;1.20;99.90;;;;;;5012777;28;20207;-75
2022/02/26 05:39:09;;;;;;;1999.90;999.90;;;1.20;99.90;;;;;;5012880;28;20208;-75
2022/02/26 05:41:35;;;;;;;1999.90;999.90;;;1.10;99.90;;;;;;5013249;28;20951;-76
2022/02/26 05:44:01;;;;;;;1999.90;999.90;;;0.90;99.90;;;;;;5012716;28;20185;-75
2022/02/26 05:46:26;;;;;;;1999.90;999.90;;;0.90;99.90;;;;;;5012953;28;20816;-76
2022/02/26 05:48:52;;;;;;;1999.90;999.90;;;0.90;99.90;;;;;;5012804;28;20239;-76
2022/02/26 05:51:18;;;;;;;1999.90;999.90;;;0.90;99.90;;;;;;5012966;28;20213;-76
2022/02/26 05:53:43;;;;;;;1999.90;999.90;;;0.90;99.90;;;;;;5012886;28;20550;-76
2022/02/26 05:56:09;;;;;;;1999.90;999.90;;;1.00;99.90;;;;;;5012497;28;20197;-75
2022/02/26 05:58:35;;;;;;;1999.90;999.90;;;1.00;99.90;;;;;;5012748;28;20189;-76
2022/02/26 06:01:00;;;;;;;1999.90;999.90;;;1.00;99.90;;;;;;5013432;28;20718;-76
2022/02/26 06:03:26;;;;;;;1999.90;999.90;;;1.00;99.90;;;;;;5012637;28;20223;-76
2022/02/26 06:05:52;;;;;;;1999.90;999.90;;;0.90;99.90;;;;;;5012335;28;20209;-76
2022/02/26 06:08:18;;;;;;;1999.90;999.90;;;0.90;99.90;;;;;;5012534;28;20833;-75
2022/02/26 06:10:43;;;;;;;1999.90;999.90;;;0.90;99.90;;;;;;5012465;28;20196;-76
2022/02/26 06:13:09;;;;;;;1999.90;999.90;;;1.00;99.90;;;;;;5012699;28;20534;-76
2022/02/26 06:15:35;;;;;;;1999.90;999.90;;;1.00;99.90;;;;;;5012600;28;20165;-76
2022/02/26 06:18:01;;;;;;;1999.90;999.90;;;0.90;99.90;;;;;;5012909;28;20192;-75
2022/02/26 06:20:26;;;;;;;1999.90;999.90;;;0.80;99.90;;;;;;5012763;28;20169;-76
2022/02/26 06:22:52;;;;;;;1999.90;999.90;;;0.70;99.90;;;;;;5012576;28;20679;-75
2022/02/26 06:25:19;;;;;;;1999.90;999.90;;;0.70;99.90;;;;;;5011985;28;20173;-75
2022/02/26 06:27:45;;;;;;;1999.90;999.90;;;0.80;99.90;;;;;;5012312;28;20197;-76
2022/02/26 06:30:13;;;;;;;1999.90;999.90;;;0.80;99.90;;;;;;5012744;28;20170;-76
2022/02/26 06:32:39;;;;;;;1999.90;999.90;;;0.70;99.90;;;;;;5012369;28;20205;-75
2022/02/26 06:35:06;;;;;;;1999.90;999.90;;;0.70;99.90;;;;;;5012161;28;20224;-76
2022/02/26 06:37:33;;;;;;;1999.90;999.90;;;0.80;99.90;;;;;;5012129;28;20268;-75
2022/02/26 06:39:58;;;;;;;1999.90;999.90;;;0.90;99.90;;;;;;5012438;28;20228;-75
2022/02/26 06:42:24;;;;;;;1999.90;999.90;;;1.00;99.90;;;;;;5013665;28;20634;-76
2022/02/26 06:44:50;;;;;;;1999.90;999.90;;;1.10;99.90;;;;;;5015675;28;20408;-75
2022/02/26 06:47:16;;;;;;;1999.90;999.90;;;1.10;99.90;;;;;;5015636;28;20475;-75
2022/02/26 06:49:42;;;;;;;1999.90;999.90;;;1.10;99.90;;;;;;5015656;28;20178;-76
2022/02/26 06:52:08;;;;;;;1999.90;999.90;;;1.10;99.90;;;;;;5015663;28;20177;-76
2022/02/26 06:54:34;;;;;;;1999.90;999.90;;;1.10;99.90;;;;;;5015407;28;20678;-76
2022/02/26 06:56:59;;;;;;;1999.90;999.90;;;1.20;99.90;;;;;;5015370;28;20300;-76
2022/02/26 06:59:26;;;;;;;1999.90;999.90;;;1.30;99.90;;;;;;5015516;28;20905;-76
2022/02/26 07:01:52;;;;;;;1999.90;999.90;;;1.30;99.90;;;;;;5015424;28;20169;-76
2022/02/26 07:04:18;;;;;;;1999.90;999.90;;;1.40;99.90;;;;;;5014831;28;20184;-76
2022/02/26 07:06:44;;;;;;;1999.90;999.90;;;1.40;99.90;;;;;;5015243;28;20189;-76
2022/02/26 07:09:17;;;;;;;1999.90;999.90;;;1.50;99.90;;;;;;5015276;28;20172;-76
2022/02/26 07:11:46;;;;;;;1999.90;999.90;;;1.60;99.90;;;;;;5015148;28;20192;-75
2022/02/26 07:14:13;;;;;;;1999.90;999.90;;;1.70;99.90;;;;;;5014936;28;20176;-76
2022/02/26 07:16:40;;;;;;;1999.90;999.90;;;1.70;99.90;;;;;;5015166;28;20274;-76
2022/02/26 07:19:06;;;;;;;1999.90;999.90;;;1.80;99.90;;;;;;5015056;28;20183;-76
2022/02/26 07:21:33;;;;;;;1999.90;999.90;;;1.90;99.90;;;;;;5014478;28;20177;-75
2022/02/26 07:23:59;;;;;;;1999.90;999.90;;;2.00;99.90;;;;;;5014213;28;20170;-75
2022/02/26 07:26:32;;;;;;;1999.90;999.90;;;2.00;99.90;;;;;;5014097;28;20594;-75
2022/02/26 07:28:58;;;;;;;1999.90;999.90;;;2.10;99.90;;;;;;5014459;28;20447;-75
2022/02/26 07:31:24;;;;;;;1999.90;999.90;;;2.30;99.90;;;;;;5014117;28;20260;-75
2022/02/26 07:33:50;;;;;;;1999.90;999.90;;;2.30;99.90;;;;;;5014128;28;20227;-75
2022/02/26 07:36:16;;;;;;;1999.90;999.90;;;2.50;99.90;;;;;;5013810;28;20169;-75
2022/02/26 07:38:42;;;;;;;1999.90;999.90;;;2.50;99.90;;;;;;5014060;28;20940;-75
2022/02/26 07:41:08;;;;;;;1999.90;999.90;;;2.60;99.90;;;;;;5013952;28;20188;-75
2022/02/26 07:43:35;;;;;;;1999.90;999.90;;;2.80;99.90;;;;;;5013919;28;20857;-75
2022/02/26 07:46:01;;;;;;;1999.90;999.90;;;2.80;99.90;;;;;;5013650;28;20487;-75
2022/02/26 07:48:27;;;;;;;1999.90;999.90;;;3.00;99.90;;;;;;5013574;28;20296;-75
2022/02/26 07:50:52;;;;;;;1999.90;999.90;;;3.10;99.90;;;;;;5013777;28;20412;-75
2022/02/26 07:53:18;;;;;;;1999.90;999.90;;;3.10;99.90;;;;;;5013390;28;20248;-75
2022/02/26 07:55:44;;;;;;;1999.90;999.90;;;3.20;99.90;;;;;;5013370;28;20180;-75
2022/02/26 07:58:09;;;;;;;1999.90;999.90;;;3.20;99.90;;;;;;5013509;28;20193;-75
2022/02/26 08:00:35;;;;;;;1999.90;999.90;;;3.30;99.90;;;;;;5014191;28;20169;-76
2022/02/26 08:03:01;;;;;;;1999.90;999.90;;;3.50;99.90;;;;;;5014599;28;20639;-76
2022/02/26 08:05:30;;;;;;;1999.90;999.90;;;3.50;99.90;;;;;;5014014;28;20165;-76
2022/02/26 08:07:56;;;;;;;1999.90;999.90;;;3.50;99.90;;;;;;5014421;28;20697;-76
2022/02/26 08:10:22;;;;;;;1999.90;999.90;;;3.60;99.90;;;;;;5014105;28;20404;-76
2022/02/26 08:12:52;;;;;;;1999.90;999.90;;;3.80;99.90;;;;;;5014111;28;20407;-76
2022/02/26 08:15:22;;;;;;;1999.90;999.90;;;3.90;99.90;;;;;;5013611;28;20165;-76
2022/02/26 08:17:48;;;;;;;1999.90;999.90;;;3.90;99.90;;;;;;5013885;28;20686;-76
2022/02/26 08:20:16;;;;;;;1999.90;999.90;;;3.90;99.90;;;;;;5013779;28;20239;-76
2022/02/26 08:22:42;;;;;;;1999.90;999.90;;;4.00;99.90;;;;;;5013938;28;20595;-76
2022/02/26 08:25:09;;;;;;;1999.90;999.90;;;4.10;99.90;;;;;;5028906;28;20507;-76
2022/02/26 08:27:36;;;;;;;1999.90;999.90;;;4.30;99.90;;;;;;5013967;28;20625;-76
2022/02/26 08:30:02;;;;;;;1999.90;999.90;;;4.40;99.90;;;;;;5013931;28;20255;-76
2022/02/26 08:32:28;;;;;;;1999.90;999.90;;;4.50;99.90;;;;;;5013727;28;20173;-76
2022/02/26 08:34:54;;;;;;;1999.90;999.90;;;4.60;99.90;;;;;;5013649;28;20799;-76
2022/02/26 08:37:19;;;;;;;1999.90;999.90;;;4.60;99.90;;;;;;5013228;28;20188;-76
2022/02/26 08:39:45;;;;;;;1999.90;999.90;;;4.60;99.90;;;;;;5013514;28;20443;-76
2022/02/26 08:42:11;;;;;;;1999.90;999.90;;;4.70;99.90;;;;;;5013963;28;20176;-75
2022/02/26 08:44:38;;;;;;;1999.90;999.90;;;4.70;99.90;;;;;;5013368;28;20231;-76
2022/02/26 08:47:04;;;;;;;1999.90;999.90;;;4.80;99.90;;;;;;5013445;28;20578;-76
2022/02/26 08:49:30;;;;;;;1999.90;999.90;;;4.80;99.90;;;;;;5013282;28;20170;-76
2022/02/26 08:51:55;;;;;;;1999.90;999.90;;;4.80;99.90;;;;;;5013676;28;20952;-76
2022/02/26 08:54:21;;;;;;;1999.90;999.90;;;4.90;99.90;;;;;;5012723;28;20165;-75
2022/02/26 08:56:47;;;;;;;1999.90;999.90;;;5.10;99.90;;;;;;5012635;28;20173;-75
2022/02/26 08:59:13;;;;;;;1999.90;999.90;;;5.20;99.90;;;;;;5012668;28;20545;-76
2022/02/26 09:01:40;;;;;;;1999.90;999.90;;;5.20;99.90;;;;;;5012653;28;20827;-76
2022/02/26 09:04:06;;;;;;;1999.90;999.90;;;5.20;99.90;;;;;;5011845;28;20408;-75
2022/02/26 09:06:32;;;;;;;1999.90;999.90;;;5.10;99.90;;;;;;5011856;28;20185;-76
2022/02/26 09:08:59;;;;;;;1999.90;999.90;;;5.10;99.90;;;;;;5012454;28;20408;-76
2022/02/26 09:11:25;;;;;;;1999.90;999.90;;;5.10;99.90;;;;;;5012482;28;20411;-76
2022/02/26 09:13:50;;;;;;;1999.90;999.90;;;5.10;99.90;;;;;;5012404;28;20169;-76
2022/02/26 09:16:16;;;;;;;1999.90;999.90;;;5.10;99.90;;;;;;5012138;28;20400;-76
2022/02/26 09:18:43;;;;;;;1999.90;999.90;;;5.10;99.90;;;;;;5012250;28;20189;-76
2022/02/26 09:21:09;;;;;;;1999.90;999.90;;;5.20;99.90;;;;;;5012282;28;20180;-76
2022/02/26 09:23:36;;;;;;;1999.90;999.90;;;5.40;99.90;;;;;;5012334;28;20407;-76
2022/02/26 09:26:04;;;;;;;1999.90;999.90;;;5.50;99.90;;;;;;5010700;28;20420;-76
2022/02/26 09:28:34;;;;;;;1999.90;999.90;;;5.60;99.90;;;;;;5012064;28;20551;-75
2022/02/26 09:31:01;;;;;;;1999.90;999.90;;;5.60;99.90;;;;;;5012257;28;20171;-76
2022/02/26 09:33:29;;;;;;;1999.90;999.90;;;5.60;99.90;;;;;;5012139;28;20506;-76
2022/02/26 09:35:56;;;;;;;1999.90;999.90;;;5.60;99.90;;;;;;5011859;28;20411;-76
2022/02/26 09:38:22;;;;;;;1999.90;999.90;;;5.80;99.90;;;;;;5012090;28;20428;-76
2022/02/26 09:40:47;;;;;;;1999.90;999.90;;;5.80;99.90;;;;;;5012193;28;20961;-76
2022/02/26 09:43:13;;;;;;;1999.90;999.90;;;5.90;99.90;;;;;;5012129;28;20665;-76
2022/02/26 09:45:39;;;;;;;1999.90;999.90;;;6.00;99.90;;;;;;5011798;28;20570;-76
2022/02/26 09:48:05;;;;;;;1999.90;999.90;;;6.00;99.90;;;;;;5011795;28;20339;-76
2022/02/26 09:50:31;;;;;;;1999.90;999.90;;;6.20;99.90;;;;;;5004376;28;20184;-77
2022/02/26 09:52:57;;;;;;;1999.90;999.90;;;6.30;99.90;;;;;;4999991;28;20480;-77
2022/02/26 09:55:23;;;;;;;1999.90;999.90;;;6.50;99.90;;;;;;4998787;28;20161;-77
2022/02/26 09:57:49;;;;;;;1999.90;999.90;;;6.70;99.90;;;;;;5003219;28;20483;-77
2022/02/26 10:00:15;;;;;;;1999.90;999.90;;;7.00;99.90;;;;;;4999967;28;20169;-77
2022/02/26 10:02:45;;;;;;;1999.90;999.90;;;7.20;99.90;;;;;;5002438;28;20166;-77
2022/02/26 10:05:11;;;;;;;1999.90;999.90;;;7.40;99.90;;;;;;4999469;28;20455;-76
2022/02/26 10:07:39;;;;;;;1999.90;999.90;;;7.40;99.90;;;;;;4995932;28;20957;-76
2022/02/26 10:10:15;;;;;;;1999.90;999.90;;;7.50;99.90;;;;;;4992870;28;20169;-76
2022/02/26 10:12:41;;;;;;;1999.90;999.90;;;7.70;99.90;;;;;;4994081;28;20404;-76
2022/02/26 10:15:21;;;;;;;1999.90;999.90;;;7.70;99.90;;;;;;4993270;28;20405;-76
2022/02/26 10:17:58;;;;;;;1999.90;999.90;;;7.70;99.90;;;;;;4998668;28;20465;-76
2022/02/26 10:20:24;;;;;;;1999.90;999.90;;;7.70;99.90;;;;;;4998049;28;20487;-76
2022/02/26 10:22:51;;;;;;;1999.90;999.90;;;7.80;99.90;;;;;;4996558;28;20422;-76
2022/02/26 10:25:36;;;;;;;1999.90;999.90;;;7.90;99.90;;;;;;4991958;28;20692;-76
2022/02/26 10:28:03;;;;;;;1999.90;999.90;;;7.80;99.90;;;;;;4994965;28;20981;-76
2022/02/26 10:30:33;;;;;;;1999.90;999.90;;;7.80;99.90;;;;;;4995630;28;20404;-76
2022/02/26 10:33:10;;;;;;;1999.90;999.90;;;7.80;99.90;;;;;;4994586;28;20417;-75
2022/02/26 10:35:41;;;;;;;1999.90;999.90;;;7.90;99.90;;;;;;4995034;28;20400;-75
2022/02/26 10:38:27;;;;;;;1999.90;999.90;;;8.00;99.90;;;;;;4995284;28;20432;-75
2022/02/26 10:41:19;;;;;;;1999.90;999.90;;;8.10;99.90;;;;;;4995199;28;20496;-76
2022/02/26 10:43:50;;;;;;;1999.90;999.90;;;8.30;99.90;;;;;;4994503;28;20421;-76
2022/02/26 10:46:23;;;;;;;1999.90;999.90;;;8.50;99.90;;;;;;4994264;28;20445;-75
2022/02/26 10:48:52;;;;;;;1999.90;999.90;;;8.60;99.90;;;;;;4994355;28;20472;-75
2022/02/26 10:51:20;;;;;;;1999.90;999.90;;;8.80;99.90;;;;;;4994877;28;20401;-75
2022/02/26 10:53:46;;;;;;;1999.90;999.90;;;8.90;99.90;;;;;;4995722;28;20933;-77
2022/02/26 10:56:13;;;;;;;1999.90;999.90;;;9.00;99.90;;;;;;4998669;28;20405;-77
2022/02/26 10:58:40;;;;;;;1999.90;999.90;;;9.20;99.90;;;;;;4998723;28;20484;-77
2022/02/26 11:01:08;;;;;;;1999.90;999.90;;;9.20;99.90;;;;;;4997633;28;20757;-77
2022/02/26 11:03:34;;;;;;;1999.90;999.90;;;9.20;99.90;;;;;;4998064;28;20428;-78
2022/02/26 11:06:02;;;;;;;1999.90;999.90;;;9.10;99.90;;;;;;4998335;28;20397;-77
2022/02/26 11:08:30;;;;;;;1999.90;999.90;;;9.00;99.90;;;;;;4997115;28;20469;-77
2022/02/26 11:10:57;;;;;;;1999.90;999.90;;;9.10;99.90;;;;;;4997226;28;20444;-78
2022/02/26 11:13:23;;;;;;;1999.90;999.90;;;9.20;99.90;;;;;;4997801;28;20445;-77
2022/02/26 11:15:52;;;;;;;1999.90;999.90;;;9.30;99.90;;;;;;4997600;28;20941;-78
2022/02/26 11:18:19;;;;;;;1999.90;999.90;;;9.30;99.90;;;;;;4997763;28;20432;-78
2022/02/26 11:20:46;;;;;;;1999.90;999.90;;;9.40;99.90;;;;;;4997547;28;20914;-77
2022/02/26 11:23:12;;;;;;;1999.90;999.90;;;9.40;99.90;;;;;;4998262;28;20416;-78
2022/02/26 11:25:39;;;;;;;1999.90;999.90;;;9.40;99.90;;;;;;4996998;28;20565;-77
2022/02/26 11:28:07;;;;;;;1999.90;999.90;;;9.50;99.90;;;;;;4996955;28;20464;-78
2022/02/26 11:30:36;;;;;;;1999.90;999.90;;;9.60;99.90;;;;;;4998510;28;20470;-78
2022/02/26 11:33:03;;;;;;;1999.90;999.90;;;9.60;99.90;;;;;;4998034;28;20468;-78
2022/02/26 11:35:29;;;;;;;1999.90;999.90;;;9.60;99.90;;;;;;4998359;28;20401;-78
2022/02/26 11:38:05;;;;;;;1999.90;999.90;;;9.50;99.90;;;;;;4998468;28;20442;-77
2022/02/26 11:40:32;;;;;;;1999.90;999.90;;;9.10;99.90;;;;;;4998908;28;20417;-77
2022/02/26 11:42:57;;;;;;;1999.90;999.90;;;9.00;99.90;;;;;;4998436;28;20452;-78
2022/02/26 11:45:31;;;;;;;1999.90;999.90;;;8.80;99.90;;;;;;4998383;28;20417;-78
2022/02/26 11:47:58;;;;;;;1999.90;999.90;;;8.50;99.90;;;;;;4997463;28;20228;-77
2022/02/26 11:50:30;;;;;;;1999.90;999.90;;;8.50;99.90;;;;;;4998898;28;20945;-77
2022/02/26 11:53:11;;;;;;;1999.90;999.90;;;8.60;99.90;;;;;;4999480;28;21049;-78
2022/02/26 11:55:50;;;;;;;1999.90;999.90;;;8.90;99.90;;;;;;4998808;28;20404;-77
2022/02/26 11:58:19;;;;;;;1999.90;999.90;;;9.20;99.90;;;;;;4999371;28;20422;-78
2022/02/26 12:00:52;;;;;;;1999.90;999.90;;;9.00;99.90;;;;;;4998442;28;20416;-78
2022/02/26 12:03:24;;;;;;;1999.90;999.90;;;8.90;99.90;;;;;;4999041;28;20562;-78
2022/02/26 12:05:53;;;;;;;1999.90;999.90;;;8.80;99.90;;;;;;4998977;28;20448;-78
2022/02/26 12:08:33;;;;;;;1999.90;999.90;;;8.80;99.90;;;;;;4998981;28;20461;-77